Time;durP1;ratioP1;P1;durP2;ratioP2;P2;SDS_P1;SDS_P2;PMS_P1;PMS_P2;Temp;Humidity;BMP_temperature;BMP_pressure;BME280_temperature;BME280_humidity;BME280_pressure;Samples;Min_cycle;Max_cycle;Signal;HPM_P1;HPM_P2
2021/12/26 00:01:18;;;;;;;50.33;26.92;;;;;;;4.03;100.00;99985.25;4933671;29;20063;-76
2021/12/26 00:03:47;;;;;;;50.22;26.65;;;;;;;4.01;100.00;99986.56;4933510;29;20517;-76
2021/12/26 00:06:19;;;;;;;48.78;25.63;;;;;;;3.94;100.00;99985.91;4933616;29;20414;-76
2021/12/26 00:08:49;;;;;;;51.42;27.60;;;;;;;3.97;100.00;99986.22;4934493;29;20044;-76
2021/12/26 00:11:17;;;;;;;49.53;25.27;;;;;;;3.85;100.00;99982.81;4933893;29;20048;-75
2021/12/26 00:13:46;;;;;;;46.55;25.50;;;;;;;3.82;100.00;99994.16;4934530;29;20047;-76
2021/12/26 00:16:14;;;;;;;44.28;24.05;;;;;;;3.86;100.00;99993.41;4933441;29;20055;-76
2021/12/26 00:18:44;;;;;;;43.83;25.38;;;;;;;3.86;100.00;99993.41;4934467;29;20392;-76
2021/12/26 00:21:14;;;;;;;45.78;26.33;;;;;;;3.70;100.00;99997.78;4933872;29;20055;-76
2021/12/26 00:23:42;;;;;;;46.28;26.05;;;;;;;3.59;100.00;99996.00;4933504;29;20054;-76
2021/12/26 00:26:11;;;;;;;45.80;25.60;;;;;;;3.65;100.00;99995.00;4933211;29;20043;-76
2021/12/26 00:28:39;;;;;;;43.00;25.17;;;;;;;3.70;100.00;99992.38;4933059;29;20048;-76
2021/12/26 00:31:07;;;;;;;49.47;27.15;;;;;;;3.56;100.00;99989.19;4933505;29;20491;-76
2021/12/26 00:33:36;;;;;;;48.20;25.75;;;;;;;3.52;100.00;99989.94;4932412;29;20056;-76
2021/12/26 00:36:04;;;;;;;47.78;24.75;;;;;;;3.40;100.00;99993.56;4922586;29;20048;-75
2021/12/26 00:38:32;;;;;;;48.72;26.70;;;;;;;3.37;100.00;99994.03;4930636;29;20044;-75
2021/12/26 00:41:00;;;;;;;50.67;27.58;;;;;;;3.43;100.00;99998.44;4932694;29;20051;-75
2021/12/26 00:43:28;;;;;;;52.83;28.83;;;;;;;3.56;100.00;99994.59;4934183;29;20044;-76
2021/12/26 00:45:57;;;;;;;55.97;30.27;;;;;;;3.52;100.00;99993.44;4932466;29;20048;-74
2021/12/26 00:48:24;;;;;;;55.92;30.60;;;;;;;3.46;100.00;99981.75;4936718;29;20054;-75
2021/12/26 00:50:53;;;;;;;55.78;29.27;;;;;;;3.43;100.00;99979.53;4936755;29;20040;-75
2021/12/26 00:53:22;;;;;;;55.58;30.05;;;;;;;3.34;100.00;99978.31;4937230;29;20499;-75
2021/12/26 00:55:51;;;;;;;57.63;30.20;;;;;;;3.40;100.00;99976.50;4935891;29;20087;-75
2021/12/26 00:58:19;;;;;;;64.13;31.33;;;;;;;3.45;100.00;99972.00;4937130;29;20063;-75
2021/12/26 01:00:49;;;;;;;54.78;29.92;;;;;;;3.46;100.00;99970.94;4937107;29;20043;-76
2021/12/26 01:03:18;;;;;;;58.40;31.45;;;;;;;3.52;100.00;99969.09;4937697;29;20055;-75
2021/12/26 01:05:52;;;;;;;56.67;30.42;;;;;;;3.53;100.00;99967.22;4920314;29;20048;-75
2021/12/26 01:08:25;;;;;;;53.07;29.53;;;;;;;3.66;100.00;99960.66;4935982;29;20819;-76
2021/12/26 01:11:01;;;;;;;62.17;30.85;;;;;;;3.73;100.00;99964.81;4935752;29;20047;-75
2021/12/26 01:13:37;;;;;;;59.38;32.15;;;;;;;3.84;100.00;99954.94;4936414;29;20512;-75
2021/12/26 01:16:28;;;;;;;58.08;32.35;;;;;;;3.86;100.00;99962.81;4935311;29;20059;-75
2021/12/26 01:19:03;;;;;;;59.72;32.50;;;;;;;3.88;100.00;99963.38;4935699;29;20051;-75
2021/12/26 01:21:31;;;;;;;64.57;34.40;;;;;;;3.93;100.00;99958.03;4919507;29;20047;-75
2021/12/26 01:24:12;;;;;;;60.70;33.67;;;;;;;3.98;100.00;99960.81;4935898;29;20054;-75
2021/12/26 01:26:41;;;;;;;63.00;34.88;;;;;;;3.99;100.00;99967.03;4920338;29;20044;-75
2021/12/26 01:29:13;;;;;;;59.60;31.95;;;;;;;3.94;100.00;99964.25;4935947;29;20056;-75
2021/12/26 01:31:42;;;;;;;63.50;33.83;;;;;;;4.01;100.00;99970.34;4920045;29;20052;-75
2021/12/26 01:34:31;;;;;;;65.07;35.53;;;;;;;3.96;100.00;99960.22;4915674;29;20514;-75
2021/12/26 01:37:15;;;;;;;74.00;35.83;;;;;;;3.99;100.00;99957.03;4923730;29;20811;-75
2021/12/26 01:39:56;;;;;;;74.15;36.30;;;;;;;3.95;100.00;99955.09;4935649;29;20414;-75
2021/12/26 01:42:36;;;;;;;68.18;36.65;;;;;;;3.93;100.00;99974.28;4937138;29;20112;-75
2021/12/26 01:45:20;;;;;;;73.88;38.90;;;;;;;3.93;100.00;99958.03;4935783;29;20040;-75
2021/12/26 01:48:01;;;;;;;73.53;37.33;;;;;;;3.85;100.00;99961.16;4935375;29;20058;-75
2021/12/26 01:50:31;;;;;;;71.05;37.25;;;;;;;3.78;100.00;99965.94;4935518;29;20137;-75
2021/12/26 01:52:59;;;;;;;77.65;37.05;;;;;;;3.78;100.00;99968.66;4935608;29;20054;-75
2021/12/26 01:55:39;;;;;;;91.63;36.10;;;;;;;3.79;100.00;99970.28;4935430;29;20052;-75
2021/12/26 01:58:13;;;;;;;85.30;37.30;;;;;;;3.80;100.00;99961.13;4936531;29;20399;-75
2021/12/26 02:00:45;;;;;;;81.07;37.95;;;;;;;3.79;100.00;99962.16;4935089;29;20398;-75
2021/12/26 02:03:13;;;;;;;73.03;32.47;;;;;;;3.73;100.00;99947.75;4934787;29;20415;-75
2021/12/26 02:05:43;;;;;;;85.03;36.28;;;;;;;3.66;100.00;99950.63;4934243;29;20051;-75
2021/12/26 02:08:13;;;;;;;65.05;35.45;;;;;;;3.58;100.00;99956.47;4935531;29;20055;-75
2021/12/26 02:10:43;;;;;;;82.63;36.78;;;;;;;3.65;100.00;99967.94;4934632;29;20055;-75
2021/12/26 02:13:11;;;;;;;73.55;36.35;;;;;;;3.71;100.00;99966.94;4919191;29;20048;-75
2021/12/26 02:15:39;;;;;;;72.70;36.97;;;;;;;3.76;100.00;99969.72;4919202;29;20043;-75
2021/12/26 02:18:13;;;;;;;73.88;34.72;;;;;;;3.70;100.00;99968.03;4934674;29;20059;-75
2021/12/26 02:21:04;;;;;;;71.05;35.70;;;;;;;3.76;100.00;99968.91;4935741;29;20048;-75
2021/12/26 02:24:02;;;;;;;74.88;36.70;;;;;;;3.89;100.00;99967.72;4934737;29;20044;-75
2021/12/26 02:29:25;;;;;;;76.03;39.30;;;;;;;3.78;100.00;99968.66;4913385;29;20608;-74
2021/12/26 02:31:53;;;;;;;75.88;36.50;;;;;;;3.76;100.00;99972.44;4934170;29;20056;-75
2021/12/26 02:34:22;;;;;;;80.97;39.53;;;;;;;3.60;100.00;99965.16;4918853;29;20047;-75
2021/12/26 02:36:50;;;;;;;81.70;36.88;;;;;;;3.57;100.00;99968.38;4935307;29;20055;-75
2021/12/26 02:39:18;;;;;;;73.22;36.67;;;;;;;3.55;100.00;99973.19;4935892;29;20063;-75
2021/12/26 02:41:46;;;;;;;78.05;36.85;;;;;;;3.54;100.00;99972.41;4918112;29;20048;-75
2021/12/26 02:44:14;;;;;;;72.22;36.10;;;;;;;3.43;100.00;99976.00;4933794;29;20051;-75
2021/12/26 02:46:43;;;;;;;84.63;37.03;;;;;;;3.32;100.00;99958.81;4933796;29;20062;-75
2021/12/26 02:49:11;;;;;;;74.53;35.88;;;;;;;3.22;100.00;99962.97;4933991;29;20054;-75
2021/12/26 02:51:40;;;;;;;95.63;37.35;;;;;;;3.18;100.00;99963.72;4934724;29;20487;-75
2021/12/26 02:54:08;;;;;;;80.47;36.70;;;;;;;3.17;100.00;99965.59;4918278;29;20056;-75
2021/12/26 02:56:37;;;;;;;72.35;36.00;;;;;;;3.20;100.00;99962.41;4933749;29;20449;-75
2021/12/26 02:59:05;;;;;;;73.90;34.00;;;;;;;3.16;100.00;99957.72;4918603;29;20044;-75
2021/12/26 03:01:33;;;;;;;82.85;35.63;;;;;;;3.09;100.00;99961.41;4918526;29;20411;-75
2021/12/26 03:04:04;;;;;;;61.17;33.60;;;;;;;3.02;100.00;99968.88;4933522;29;20055;-75
2021/12/26 03:06:40;;;;;;;79.50;34.17;;;;;;;3.10;100.00;99956.84;4918623;29;20044;-75
2021/12/26 03:09:12;;;;;;;91.82;34.22;;;;;;;3.09;100.00;99960.63;4934536;29;20067;-75
2021/12/26 03:11:44;;;;;;;88.10;34.30;;;;;;;3.09;100.00;99955.19;4935141;29;20051;-75
2021/12/26 03:14:11;;;;;;;82.97;34.88;;;;;;;3.06;100.00;99963.78;4935280;29;20050;-75
2021/12/26 03:16:48;;;;;;;92.72;34.50;;;;;;;3.04;100.00;99957.81;4933254;29;20054;-75
2021/12/26 03:19:17;;;;;;;87.47;37.20;;;;;;;3.32;100.00;99956.91;4933514;29;20474;-75
2021/12/26 03:21:50;;;;;;;91.32;35.58;;;;;;;3.18;100.00;99955.63;4934373;29;20074;-74
2021/12/26 03:24:18;;;;;;;111.00;34.55;;;;;;;3.14;100.00;99968.81;4933213;29;20051;-75
2021/12/26 03:26:46;;;;;;;73.28;34.58;;;;;;;3.14;100.00;99967.97;4918127;29;20047;-75
2021/12/26 03:29:14;;;;;;;78.07;34.05;;;;;;;3.16;100.00;99966.66;4913855;29;20048;-75
2021/12/26 03:31:43;;;;;;;78.93;35.58;;;;;;;3.17;100.00;99967.50;4914410;29;20048;-75
2021/12/26 03:34:11;;;;;;;75.68;35.13;;;;;;;3.06;100.00;99967.31;4930676;29;20147;-75
2021/12/26 03:36:40;;;;;;;74.38;33.78;;;;;;;3.06;100.00;99969.19;4885536;29;20063;-74
2021/12/26 03:39:08;;;;;;;73.25;35.08;;;;;;;3.17;100.00;99968.31;4915097;29;20052;-74
2021/12/26 03:41:36;;;;;;;79.20;32.55;;;;;;;2.99;100.00;99965.84;4915448;29;20059;-74
2021/12/26 03:44:04;;;;;;;68.82;33.72;;;;;;;2.97;100.00;99962.56;4914069;29;20377;-74
2021/12/26 03:46:33;;;;;;;76.85;33.72;;;;;;;2.93;100.00;99968.44;4913978;29;20056;-75
2021/12/26 03:49:04;;;;;;;76.78;31.65;;;;;;;3.07;100.00;99976.25;4913759;29;20052;-75
2021/12/26 03:51:34;;;;;;;79.20;31.10;;;;;;;2.99;100.00;99965.84;4914301;29;20063;-74
2021/12/26 03:54:05;;;;;;;75.03;30.67;;;;;;;2.88;100.00;99979.16;4914125;29;20056;-74
2021/12/26 03:56:34;;;;;;;66.32;33.60;;;;;;;2.87;100.00;99974.84;4915434;29;20087;-74
2021/12/26 03:59:10;;;;;;;66.32;32.67;;;;;;;2.87;100.00;99974.84;4914381;29;20044;-75
2021/12/26 04:01:39;;;;;;;67.50;29.85;;;;;;;2.87;100.00;99990.22;4930327;29;20048;-75
2021/12/26 04:04:07;;;;;;;64.32;30.27;;;;;;;2.91;100.00;99981.41;4914243;29;20055;-75
2021/12/26 04:06:39;;;;;;;64.45;28.10;;;;;;;2.86;100.00;99978.59;4929287;29;20056;-74
2021/12/26 04:09:08;;;;;;;75.55;29.90;;;;;;;2.92;100.00;99965.97;4913453;29;20048;-74
2021/12/26 04:11:39;;;;;;;57.13;26.83;;;;;;;2.89;100.00;99967.28;4913806;29;20410;-75
2021/12/26 04:14:07;;;;;;;58.88;28.05;;;;;;;2.75;100.00;99963.28;4915512;29;20063;-74
2021/12/26 04:16:35;;;;;;;75.78;26.25;;;;;;;2.68;100.00;99985.03;4915270;29;20070;-75
2021/12/26 04:19:04;;;;;;;56.20;27.65;;;;;;;2.75;100.00;99982.19;4929383;29;20060;-74
2021/12/26 04:21:32;;;;;;;58.88;26.27;;;;;;;2.69;100.00;99984.78;4929069;29;20052;-74
2021/12/26 04:24:03;;;;;;;71.53;28.20;;;;;;;2.60;100.00;99988.97;4914351;29;20050;-74
2021/12/26 04:26:32;;;;;;;56.53;26.10;;;;;;;2.59;100.00;99990.00;4884923;29;20060;-74
2021/12/26 04:29:00;;;;;;;58.65;27.55;;;;;;;2.54;100.00;99982.63;4925699;29;20076;-74
2021/12/26 04:31:29;;;;;;;64.70;26.30;;;;;;;2.44;100.00;99990.50;4932454;29;20054;-74
2021/12/26 04:33:57;;;;;;;70.85;27.50;;;;;;;2.38;100.00;99984.22;4932356;29;20055;-74
2021/12/26 04:36:25;;;;;;;57.05;27.35;;;;;;;2.42;100.00;99992.66;4903551;29;20056;-74
2021/12/26 04:38:53;;;;;;;58.17;26.52;;;;;;;2.38;100.00;99996.88;4932312;29;20039;-74
2021/12/26 04:41:21;;;;;;;56.00;25.35;;;;;;;2.35;100.00;99987.38;4932242;29;20052;-75
2021/12/26 04:44:15;;;;;;;56.40;26.85;;;;;;;2.34;100.00;99984.94;4921224;29;20063;-75
2021/12/26 04:47:01;;;;;;;65.47;25.77;;;;;;;2.40;100.00;99984.78;4916087;29;20051;-74
2021/12/26 04:49:30;;;;;;;63.85;28.48;;;;;;;2.40;100.00;99984.78;4917220;29;20055;-75
2021/12/26 04:51:58;;;;;;;60.70;26.38;;;;;;;2.46;100.00;99990.28;4932731;29;20056;-75
2021/12/26 04:54:30;;;;;;;62.00;26.98;;;;;;;2.45;100.00;99994.88;4932236;29;20441;-75
2021/12/26 04:56:58;;;;;;;61.28;27.30;;;;;;;2.41;100.00;99986.41;4932711;29;20055;-75
2021/12/26 04:59:26;;;;;;;61.70;25.67;;;;;;;2.41;100.00;99983.72;4932082;29;20066;-75
2021/12/26 05:01:54;;;;;;;62.55;26.00;;;;;;;2.41;100.00;99980.22;4934145;29;20068;-74
2021/12/26 05:04:23;;;;;;;59.20;26.10;;;;;;;2.47;100.00;99981.13;4933849;29;20040;-75
2021/12/26 05:06:51;;;;;;;54.90;25.95;;;;;;;2.50;100.00;99978.75;4933292;29;20055;-74
2021/12/26 05:09:18;;;;;;;67.60;27.30;;;;;;;2.51;100.00;99982.28;4932785;29;20039;-75
2021/12/26 05:11:48;;;;;;;57.95;26.65;;;;;;;2.53;100.00;99974.75;4931896;29;20078;-75
2021/12/26 05:14:17;;;;;;;59.03;27.80;;;;;;;2.53;100.00;99985.56;4916496;29;20056;-75
2021/12/26 05:16:44;;;;;;;56.65;27.40;;;;;;;2.50;100.00;99986.06;4933327;29;20070;-75
2021/12/26 05:19:15;;;;;;;54.58;27.63;;;;;;;2.49;100.00;99997.91;4932490;29;20047;-74
2021/12/26 05:21:43;;;;;;;62.25;28.27;;;;;;;2.54;100.00;99992.63;4932145;29;20047;-75
2021/12/26 05:24:12;;;;;;;57.05;27.33;;;;;;;2.53;100.00;100001.75;4916677;29;20044;-74
2021/12/26 05:26:41;;;;;;;64.80;27.20;;;;;;;2.49;100.00;100003.31;4916268;29;20402;-75
2021/12/26 05:29:09;;;;;;;62.72;27.67;;;;;;;2.53;100.00;100005.28;4931546;29;20055;-75
2021/12/26 05:31:37;;;;;;;62.95;29.80;;;;;;;2.57;100.00;100008.34;4916039;29;20043;-75
2021/12/26 05:34:05;;;;;;;67.53;30.20;;;;;;;2.60;100.00;100017.84;4918613;29;20047;-75
2021/12/26 05:36:34;;;;;;;60.38;31.25;;;;;;;2.55;100.00;100022.06;4918915;29;20047;-75
2021/12/26 05:39:02;;;;;;;61.60;30.73;;;;;;;2.55;100.00;100021.28;4919515;29;20062;-74
2021/12/26 05:41:33;;;;;;;64.03;30.70;;;;;;;2.60;100.00;100029.47;4920249;29;20052;-75
2021/12/26 05:44:12;;;;;;;66.10;33.50;;;;;;;2.58;100.00;100030.78;4935965;29;20048;-75
2021/12/26 05:46:41;;;;;;;66.72;31.70;;;;;;;2.53;100.00;100029.59;4935200;29;20052;-75
2021/12/26 05:49:10;;;;;;;67.65;32.40;;;;;;;2.61;100.00;100035.69;4920130;29;20479;-75
2021/12/26 05:51:48;;;;;;;64.70;31.35;;;;;;;2.55;100.00;100021.28;4919637;29;20052;-75
2021/12/26 05:54:49;;;;;;;65.90;30.17;;;;;;;2.58;100.00;100026.19;4925455;29;20052;-74
2021/12/26 05:57:18;;;;;;;65.75;30.45;;;;;;;2.55;100.00;100021.28;4918748;29;20071;-74
2021/12/26 05:59:47;;;;;;;73.85;30.20;;;;;;;2.49;100.00;100022.22;4935102;29;20052;-75
2021/12/26 06:02:15;;;;;;;67.30;30.95;;;;;;;2.45;100.00;100021.06;4934952;29;20055;-75
2021/12/26 06:04:45;;;;;;;60.88;30.85;;;;;;;2.50;100.00;100030.06;4935532;29;20036;-74
2021/12/26 06:07:14;;;;;;;69.93;32.03;;;;;;;2.44;100.00;100019.41;4919278;29;20063;-74
2021/12/26 06:09:43;;;;;;;61.08;30.80;;;;;;;2.45;100.00;100023.75;4934985;29;20050;-74
2021/12/26 06:12:11;;;;;;;61.28;31.65;;;;;;;2.61;100.00;100035.69;4936144;29;20059;-74
2021/12/26 06:14:39;;;;;;;70.10;32.40;;;;;;;2.63;100.00;100025.44;4919017;29;20051;-74
2021/12/26 06:17:09;;;;;;;70.57;32.35;;;;;;;2.54;100.00;100022.34;4936087;29;20055;-75
2021/12/26 06:20:04;;;;;;;69.05;31.00;;;;;;;2.65;100.00;100036.84;4935518;29;20063;-75
2021/12/26 06:22:36;;;;;;;70.95;30.92;;;;;;;2.67;100.00;100040.97;4918448;29;20071;-74
2021/12/26 06:25:12;;;;;;;55.30;30.13;;;;;;;2.65;100.00;100037.66;4935790;29;20055;-75
2021/12/26 06:28:07;;;;;;;57.65;31.42;;;;;;;2.73;100.00;100032.97;4905944;29;20503;-75
2021/12/26 06:30:53;;;;;;;72.95;33.88;;;;;;;2.62;100.00;100035.44;4935831;29;20414;-75
2021/12/26 06:33:43;;;;;;;63.60;31.52;;;;;;;2.72;100.00;100031.28;4935399;29;20062;-75
2021/12/26 06:36:29;;;;;;;65.13;31.27;;;;;;;2.76;100.00;100027.06;4935285;29;20075;-75
2021/12/26 06:39:15;;;;;;;70.78;31.15;;;;;;;2.75;100.00;100025.41;4935432;29;20052;-75
2021/12/26 06:42:12;;;;;;;60.58;31.67;;;;;;;2.84;100.00;100026.69;4900558;29;20056;-75
2021/12/26 06:44:40;;;;;;;63.15;31.40;;;;;;;2.69;100.00;100022.63;4934994;29;20423;-74
2021/12/26 06:47:21;;;;;;;64.47;31.58;;;;;;;2.73;100.00;100017.53;4918158;29;20054;-74
2021/12/26 06:49:51;;;;;;;59.05;28.95;;;;;;;2.64;100.00;100017.09;4919166;29;20048;-74
2021/12/26 06:52:19;;;;;;;60.92;31.10;;;;;;;2.66;100.00;100012.31;4934768;29;20067;-74
2021/12/26 06:54:48;;;;;;;55.85;29.48;;;;;;;2.51;100.00;100015.53;4918609;29;20074;-74
2021/12/26 06:57:17;;;;;;;56.10;30.08;;;;;;;2.50;100.00;100016.56;4918499;29;20063;-75
2021/12/26 06:59:46;;;;;;;55.78;28.75;;;;;;;2.41;100.00;100018.03;4933685;29;20056;-75
2021/12/26 07:02:14;;;;;;;55.20;26.85;;;;;;;2.48;100.00;100016.00;4918054;29;20052;-74
2021/12/26 07:04:56;;;;;;;51.30;26.95;;;;;;;2.47;100.00;100019.75;4918198;29;20048;-75
2021/12/26 07:07:31;;;;;;;58.88;29.05;;;;;;;2.57;100.00;100021.00;4932992;29;20055;-76
2021/12/26 07:10:00;;;;;;;53.05;26.88;;;;;;;2.59;100.00;100032.41;4935067;29;20502;-75
2021/12/26 07:12:29;;;;;;;51.15;28.83;;;;;;;2.51;100.00;100022.81;4933291;29;20121;-76
2021/12/26 07:15:33;;;;;;;48.38;25.98;;;;;;;2.50;100.00;100030.06;4928533;29;20062;-75
2021/12/26 07:18:02;;;;;;;51.17;26.15;;;;;;;2.48;100.00;100025.97;4933227;29;20062;-75
2021/12/26 07:20:34;;;;;;;48.90;25.92;;;;;;;2.52;100.00;100032.53;4933502;29;20415;-75
2021/12/26 07:23:21;;;;;;;56.83;27.42;;;;;;;2.57;100.00;100045.31;4934436;29;20059;-76
2021/12/26 07:25:53;;;;;;;58.47;27.48;;;;;;;2.58;100.00;100042.38;4934297;29;20075;-75
2021/12/26 07:28:22;;;;;;;53.17;29.13;;;;;;;2.64;100.00;100043.31;4914627;29;20052;-76
2021/12/26 07:31:08;;;;;;;51.90;27.88;;;;;;;2.63;100.00;100045.19;4924900;29;20729;-75
2021/12/26 07:33:37;;;;;;;51.20;28.45;;;;;;;2.69;100.00;100044.22;4929286;29;20043;-76
2021/12/26 07:36:06;;;;;;;76.72;30.35;;;;;;;2.69;100.00;100041.53;4903115;29;20811;-76
2021/12/26 07:38:48;;;;;;;57.55;29.27;;;;;;;2.74;100.00;100042.69;4928181;29;20068;-75
2021/12/26 07:41:29;;;;;;;62.35;30.52;;;;;;;2.72;100.00;100047.50;4929164;29;20052;-76
2021/12/26 07:43:57;;;;;;;56.22;28.90;;;;;;;2.68;100.00;100045.28;4928771;29;20044;-76
2021/12/26 07:46:45;;;;;;;62.17;30.77;;;;;;;2.68;100.00;100037.19;4914680;29;20052;-78
2021/12/26 07:49:20;;;;;;;55.03;28.08;;;;;;;2.77;100.00;100050.31;4909971;29;20472;-78
2021/12/26 07:52:16;;;;;;;61.00;31.38;;;;;;;2.69;100.00;100052.34;4910629;29;20411;-77
2021/12/26 07:55:14;;;;;;;56.05;29.88;;;;;;;2.80;100.00;100064.16;4908802;29;20063;-77
2021/12/26 07:58:01;;;;;;;61.47;29.50;;;;;;;2.81;100.00;100073.94;4910269;29;20060;-77
2021/12/26 08:00:47;;;;;;;51.00;28.13;;;;;;;2.82;100.00;100074.72;4907255;29;20052;-76
2021/12/26 08:03:28;;;;;;;55.10;28.35;;;;;;;2.81;100.00;100081.19;4912665;29;20052;-77
2021/12/26 08:06:19;;;;;;;53.95;28.35;;;;;;;2.81;100.00;100090.16;4901011;29;20083;-66
2021/12/26 08:08:52;;;;;;;59.13;29.08;;;;;;;2.85;100.00;100089.66;4914736;29;20052;-66
2021/12/26 08:11:22;;;;;;;55.55;28.10;;;;;;;2.85;100.00;100087.78;4913842;29;20048;-65
2021/12/26 08:13:51;;;;;;;53.72;28.25;;;;;;;2.94;100.00;100101.72;4912410;29;20059;-66
2021/12/26 08:16:19;;;;;;;52.33;26.98;;;;;;;2.95;100.00;100096.06;4914477;29;20056;-66
2021/12/26 08:18:47;;;;;;;50.00;26.50;;;;;;;2.94;100.00;100102.53;4913958;29;20534;-70
2021/12/26 08:21:15;;;;;;;56.92;29.60;;;;;;;3.09;100.00;100109.31;4898240;29;20052;-70
2021/12/26 08:23:43;;;;;;;60.45;31.92;;;;;;;3.28;100.00;100109.13;4914447;29;20051;-70
2021/12/26 08:26:12;;;;;;;51.90;27.33;;;;;;;3.42;100.00;100118.56;4914847;29;20047;-70
2021/12/26 08:28:40;;;;;;;57.08;31.00;;;;;;;3.43;100.00;100122.91;4922486;29;20060;-70
2021/12/26 08:31:11;;;;;;;56.03;29.80;;;;;;;3.48;100.00;100130.31;4934144;29;20394;-70
2021/12/26 08:33:39;;;;;;;59.58;27.75;;;;;;;3.46;100.00;100127.84;4916694;29;20048;-69
2021/12/26 08:36:07;;;;;;;50.17;28.08;;;;;;;3.56;100.00;100126.38;4933577;29;20051;-70
2021/12/26 08:38:37;;;;;;;52.83;30.27;;;;;;;3.61;100.00;100131.84;4917079;29;20133;-69
2021/12/26 08:41:06;;;;;;;48.03;27.58;;;;;;;3.57;100.00;100136.13;4933732;29;20047;-70
2021/12/26 08:43:34;;;;;;;52.67;27.75;;;;;;;3.55;100.00;100135.53;4939266;29;20040;-69
2021/12/26 08:46:02;;;;;;;41.38;25.02;;;;;;;3.83;100.00;100141.97;4934164;29;20036;-67
2021/12/26 08:48:30;;;;;;;48.88;25.85;;;;;;;3.72;100.00;100147.19;4933211;29;20490;-67
2021/12/26 08:50:58;;;;;;;44.28;24.23;;;;;;;3.60;100.00;100150.00;4933341;29;20047;-67
2021/12/26 08:53:27;;;;;;;44.20;24.58;;;;;;;3.86;100.00;100146.91;4929211;29;20044;-67
2021/12/26 08:55:57;;;;;;;49.58;27.30;;;;;;;3.80;100.00;100145.19;4932327;29;20047;-67
2021/12/26 08:58:26;;;;;;;46.00;26.50;;;;;;;3.72;100.00;100152.63;4932789;29;20483;-67
2021/12/26 09:00:55;;;;;;;46.35;25.80;;;;;;;3.78;100.00;100160.81;4934065;29;20055;-67
2021/12/26 09:03:23;;;;;;;51.55;26.58;;;;;;;3.79;100.00;100157.88;4931293;29;20043;-67
2021/12/26 09:05:52;;;;;;;53.90;25.63;;;;;;;3.67;100.00;100155.22;4931201;29;20043;-67
2021/12/26 09:08:21;;;;;;;46.45;25.52;;;;;;;3.57;100.00;100155.06;4928572;29;20055;-66
2021/12/26 09:10:49;;;;;;;47.80;24.70;;;;;;;3.41;100.00;100159.41;4937711;29;20046;-67
2021/12/26 09:13:18;;;;;;;49.63;24.75;;;;;;;3.46;100.00;100162.16;4937872;29;20090;-67
2021/12/26 09:15:46;;;;;;;47.47;26.27;;;;;;;3.41;100.00;100164.81;4935572;29;20048;-67
2021/12/26 09:18:14;;;;;;;51.38;26.90;;;;;;;3.80;100.00;100166.84;4936843;29;20047;-82
2021/12/26 09:20:42;;;;;;;47.70;27.38;;;;;;;4.08;100.00;100160.53;4933869;29;20051;-83
2021/12/26 09:23:10;;;;;;;49.28;26.08;;;;;;;3.91;100.00;100171.31;4937069;29;20051;-83
2021/12/26 09:25:38;;;;;;;50.30;26.55;;;;;;;3.83;100.00;100175.28;4935612;29;20511;-81
2021/12/26 09:28:06;;;;;;;46.65;26.52;;;;;;;3.67;100.00;100178.78;4935396;29;20051;-83
2021/12/26 09:30:34;;;;;;;41.00;23.83;;;;;;;3.83;100.00;100180.69;4935603;29;20048;-83
2021/12/26 09:33:02;;;;;;;47.92;25.67;;;;;;;4.12;100.00;100166.25;4937540;29;20051;-83
2021/12/26 09:35:31;;;;;;;46.78;24.73;;;;;;;4.18;100.00;100162.56;4933338;29;20040;-82
2021/12/26 09:38:03;;;;;;;46.80;24.20;;;;;;;4.15;100.00;100165.75;4936850;29;20043;-83
2021/12/26 09:40:31;;;;;;;40.78;23.33;;;;;;;4.19;100.00;100156.06;4936564;29;20063;-82
2021/12/26 09:42:58;;;;;;;43.42;24.05;;;;;;;4.20;100.00;100156.91;4936000;29;20059;-84
2021/12/26 09:45:26;;;;;;;44.22;23.35;;;;;;;4.21;100.00;100155.84;4930622;29;20542;-84
2021/12/26 09:47:54;;;;;;;42.88;23.92;;;;;;;3.89;100.00;100152.66;4930883;29;20058;-84
2021/12/26 09:50:23;;;;;;;39.08;22.70;;;;;;;4.06;100.00;100154.50;4925489;29;20074;-84
2021/12/26 09:52:55;;;;;;;37.60;21.70;;;;;;;3.98;100.00;100150.34;4922777;29;20385;-85
2021/12/26 09:55:27;;;;;;;39.25;22.38;;;;;;;4.05;100.00;100146.66;4933421;29;20058;-90
2021/12/26 09:57:56;;;;;;;40.72;22.25;;;;;;;3.88;100.00;100142.06;4940920;29;20502;-90
2021/12/26 10:00:40;;;;;;;38.30;23.30;;;;;;;3.90;100.00;100139.91;4899443;29;20048;-89
2021/12/26 10:03:20;;;;;;;38.03;22.08;;;;;;;3.90;100.00;100145.31;4934189;29;20055;-86
2021/12/26 10:06:17;;;;;;;37.65;22.00;;;;;;;4.11;100.00;100149.19;4918365;29;20044;-85
2021/12/26 10:09:05;;;;;;;43.97;23.30;;;;;;;4.07;100.00;100141.81;4923504;29;20055;-86
2021/12/26 10:11:40;;;;;;;39.45;22.15;;;;;;;4.12;100.00;100131.06;4905882;29;20052;-85
2021/12/26 10:14:15;;;;;;;40.80;22.60;;;;;;;4.42;100.00;100136.09;4919902;29;20408;-86
2021/12/26 10:16:52;;;;;;;41.97;24.25;;;;;;;4.43;100.00;100135.03;4928177;29;20506;-86
2021/12/26 10:19:21;;;;;;;38.35;22.25;;;;;;;4.92;100.00;100135.34;4926507;28;20054;-85
2021/12/26 10:22:01;;;;;;;43.65;23.80;;;;;;;5.07;100.00;100138.25;4931732;29;20525;-86
2021/12/26 10:24:41;;;;;;;38.95;21.83;;;;;;;5.27;100.00;100130.59;4939202;29;20047;-86
2021/12/26 10:27:15;;;;;;;38.13;21.73;;;;;;;5.03;100.00;100128.97;4931017;29;20067;-87
2021/12/26 10:29:48;;;;;;;39.65;21.27;;;;;;;4.86;100.00;100130.94;4933984;29;20055;-84
2021/12/26 10:32:21;;;;;;;41.63;23.42;;;;;;;4.82;100.00;100119.78;4933786;29;20050;-84
2021/12/26 10:34:55;;;;;;;39.67;22.23;;;;;;;4.95;100.00;100129.44;4925411;29;20052;-84
2021/12/26 10:37:45;;;;;;;43.67;22.95;;;;;;;4.89;100.00;100127.75;4931805;29;20510;-86
2021/12/26 10:40:22;;;;;;;41.30;23.83;;;;;;;4.90;100.00;100121.25;4916308;29;20058;-87
2021/12/26 10:42:59;;;;;;;40.53;22.60;;;;;;;5.18;100.00;100116.69;4929929;29;20055;-87
2021/12/26 10:45:31;;;;;;;46.35;22.80;;;;;;;5.06;100.00;100114.94;4933724;28;20047;-87
2021/12/26 10:48:05;;;;;;;39.55;20.25;;;;;;;5.23;100.00;100119.44;4933313;29;20048;-87
2021/12/26 10:50:40;;;;;;;42.28;22.83;;;;;;;5.34;100.00;100118.44;4936193;29;20493;-86
2021/12/26 10:53:12;;;;;;;40.50;21.58;;;;;;;5.41;100.00;100106.56;4932245;29;20474;-86
2021/12/26 10:55:43;;;;;;;39.78;21.90;;;;;;;5.18;100.00;100113.97;4906121;29;20059;-86
2021/12/26 10:58:14;;;;;;;38.53;22.05;;;;;;;5.15;100.00;100109.88;4921747;29;20055;-85
2021/12/26 11:00:45;;;;;;;40.70;21.85;;;;;;;5.09;100.00;100108.97;4921810;29;20060;-86
2021/12/26 11:03:21;;;;;;;41.58;20.65;;;;;;;5.17;100.00;100106.88;4920496;29;20055;-85
2021/12/26 11:05:55;;;;;;;39.60;23.25;;;;;;;5.23;100.00;100105.88;4899807;29;20062;-86
2021/12/26 11:08:35;;;;;;;40.90;21.98;;;;;;;5.27;100.00;100098.06;4921651;29;20058;-86
2021/12/26 11:11:18;;;;;;;40.13;22.83;;;;;;;5.28;100.00;100095.06;4926658;29;20052;-86
2021/12/26 11:13:47;;;;;;;35.92;20.30;;;;;;;5.44;100.00;100104.19;4912296;29;20399;-86
2021/12/26 11:16:16;;;;;;;34.65;19.77;;;;;;;5.57;100.00;100092.06;4933292;29;20052;-85
2021/12/26 11:18:54;;;;;;;37.25;20.02;;;;;;;5.49;100.00;100089.84;4939359;29;20403;-85
2021/12/26 11:21:23;;;;;;;40.85;21.48;;;;;;;5.68;100.00;100095.72;4936689;29;20522;-85
2021/12/26 11:23:51;;;;;;;39.63;21.95;;;;;;;5.94;100.00;100078.75;4943573;29;20062;-86
2021/12/26 11:26:20;;;;;;;40.78;21.60;;;;;;;5.52;100.00;100070.31;4940966;29;20055;-86
2021/12/26 11:28:52;;;;;;;35.70;21.33;;;;;;;5.88;100.00;100077.94;4941558;29;20055;-86
2021/12/26 11:31:25;;;;;;;41.80;23.25;;;;;;;5.60;100.00;100082.59;4937394;28;20055;-86
2021/12/26 11:34:04;;;;;;;37.28;22.65;;;;;;;5.49;100.00;100070.84;4938112;29;20683;-86
2021/12/26 11:36:33;;;;;;;43.47;23.60;;;;;;;5.61;100.00;100059.78;4919223;29;20048;-86
2021/12/26 11:39:20;;;;;;;40.15;23.00;;;;;;;5.96;100.00;100063.03;4934044;29;20052;-87